Thursday, October 23, 2014
17:15 UTC
  |  Log In   |  Register Free
Airport Search:

Henderson Field Airport
(KACZ)

Henderson Field Airport Diagram
No Airport Diagram Available

FAA data valid effective September 18, 2014 - November 13, 2014 (unless otherwise noted).

 
 
 
 
 
 
 
 
 
 
 
 
 
 

Current Aviation Weather for Henderson Field Airport (KACZ)

METAR data is unavailable for ACZ. The nearest METAR location is at KDPL (17 nm NE from ACZ).

The most recent METAR observation for KDPL was updated at: 1711
METAR Summary (Translated METAR)
KDPL
231655Z AUTO 27007KT 10SM CLR 17/06 A2999 RMK AO2 T01720062
(17 nm NE from KACZ)
KOAJ
231655Z AUTO 28004KT 10SM CLR 18/06 A2997 RMK AO1
(20.4 nm NE from KACZ)
TAF Summary (Translated TAF)
KOAJ
(20.9 nm SE from KDPL)
231120Z 2312/2412 29005KT P6SM SKC FM231400 30010G18KT P6SM FEW040 FM232000 28004KT P6SM SKC AMD LTD TO CLD VIS AND WIND
  Airport Weather Conditions for KACZ

Current weather conditions are
not available for ACZ


The nearest NOAA weather station
is at DPL, (17 nm NE from ACZ)
  
 Current Weather at DPL
63° F
Fair
West winds at 10.4 mph
DPL NOAA Radar

Pressure: 30.00 in
Humidity: 49%
Wind: West at 10.4 MPH (9 KT)
Dew Point: 43.2°F
Visibility: 10.00 mi


Airport Weather Forecast for KACZ

Translated METAR and TAF for KDPL
Translated METAR for KDPL (1710 UTC 23 October 2014)
found at http://aviationweather.gov/adds/metars/
 
METAR text: KDPL 231655Z AUTO 27007KT 10SM CLR 17/06 A2999 RMK AO2 T01720062
Conditions at: KDPL (KENANSVILLE/DUPL, NC, US) observed 1655 UTC 23 October 2014
Temperature: 17.2°C (63°F)
Dewpoint: 6.2°C (43°F) [RH = 48%]
Pressure (altimeter): 29.99 inches Hg (1015.7 mb)
Winds: from the W (270 degrees) at 8 MPH (7 knots; 3.6 m/s)
Visibility: 10 or more miles (16+ km)
Ceiling: at least 12,000 feet AGL
Clouds: sky clear below 12,000 feet AGL
Weather: automated observation with no human augmentation;
there may or may not be significant weather present at this time
Translated TAF for KDPL

There is no translated TAF available for this airport

Find All Airport Services Find A Hotel Find A Rental Car Find A Golf Course Find A Restaurant $100 Hamburger



FBO's on the Field
FBO Company Facility Photos Services Transportation Aviation Fuel Prices: Prices include tax
Catering Weather Repair Courtesy Rental Type 100LL JetA JetA+ MOGAS 8087
 
Henderson Field

This FBO has not yet been rated
FS: Phillips 66
Last Updated: Sep-23
Login to update fuel prices
SS:
Contact Henderson FieldMore FBO Information
 
Add another FBO Facility Photos Catering Weather Repair Courtesy Rental Type 100LL JetA JetA+ MOGAS 8087
Services Transportation Aviation Fuel Prices: Prices include tax


model-print
model-print
model-print
model-print